Time,TemperatureF,DewpointF,PressureIn,WindDirection,WindDirectionDegrees,WindSpeedMPH,WindSpeedGustMPH,Humidity,HourlyPrecipIn,Conditions,Clouds,dailyrainin,SoftwareType,DateUTC
2013-03-06 00:02:00,33.8,25.7,30.00,ESE,119,0.0,0.0,72,0.00,,,0.00,Wunderground v.1.13,2013-03-06 05:02:00,
2013-03-06 00:07:00,33.8,25.7,30.00,ESE,119,0.0,0.0,72,0.00,,,0.00,Wunderground v.1.13,2013-03-06 05:07:00,
2013-03-06 00:12:00,33.8,25.7,30.00,ESE,119,0.0,0.0,72,0.00,,,0.00,Wunderground v.1.13,2013-03-06 05:12:00,
2013-03-06 00:17:00,33.7,25.6,30.00,ESE,119,0.0,0.0,72,0.00,,,0.00,Wunderground v.1.13,2013-03-06 05:17:00,
2013-03-06 00:22:00,33.7,26.0,30.00,ESE,119,0.0,0.0,73,0.00,,,0.00,Wunderground v.1.13,2013-03-06 05:22:00,
2013-03-06 00:27:00,33.5,25.8,30.00,ESE,119,0.0,0.0,73,0.00,,,0.00,Wunderground v.1.13,2013-03-06 05:27:00,
2013-03-06 00:32:00,33.5,25.4,30.00,ESE,119,0.0,0.0,72,0.00,,,0.00,Wunderground v.1.13,2013-03-06 05:32:00,
2013-03-06 00:37:00,33.5,25.4,30.00,ESE,119,0.0,0.0,72,0.00,,,0.00,Wunderground v.1.13,2013-03-06 05:37:00,
2013-03-06 00:42:00,33.5,25.4,30.00,ESE,119,0.0,0.0,72,0.00,,,0.00,Wunderground v.1.13,2013-03-06 05:42:00,
2013-03-06 00:47:00,33.5,25.4,30.00,ESE,119,0.0,0.0,72,0.00,,,0.00,Wunderground v.1.13,2013-03-06 05:47:00,
2013-03-06 00:57:00,33.5,25.4,30.00,ESE,119,0.0,0.0,72,0.00,,,0.00,Wunderground v.1.13,2013-03-06 05:57:00,
2013-03-06 01:02:00,33.5,25.1,30.00,ESE,119,0.0,0.0,71,0.00,,,0.00,Wunderground v.1.13,2013-03-06 06:02:00,
2013-03-06 01:07:00,33.5,25.1,30.00,ESE,119,0.0,0.0,71,0.00,,,0.00,Wunderground v.1.13,2013-03-06 06:07:00,
2013-03-06 01:12:00,33.5,25.1,30.00,ESE,119,0.0,0.0,71,0.00,,,0.00,Wunderground v.1.13,2013-03-06 06:12:00,
2013-03-06 01:22:00,33.7,25.3,30.00,ESE,119,0.0,0.0,71,0.00,,,0.00,Wunderground v.1.13,2013-03-06 06:22:00,
2013-03-06 01:27:00,33.7,25.3,30.00,ESE,119,0.0,0.0,71,0.00,,,0.00,Wunderground v.1.13,2013-03-06 06:27:00,
2013-03-06 01:32:00,33.5,25.1,30.00,ESE,119,0.0,0.0,71,0.00,,,0.00,Wunderground v.1.13,2013-03-06 06:32:00,
2013-03-06 01:37:00,33.7,25.3,30.00,ESE,119,0.0,0.0,71,0.00,,,0.00,Wunderground v.1.13,2013-03-06 06:37:00,
2013-03-06 01:42:00,33.7,25.3,30.00,ESE,120,0.0,0.0,71,0.00,,,0.00,Wunderground v.1.13,2013-03-06 06:42:00,
2013-03-06 01:47:00,33.7,25.3,30.00,ESE,119,0.0,0.0,71,0.00,,,0.00,Wunderground v.1.13,2013-03-06 06:47:00,
2013-03-06 01:52:00,33.7,25.3,30.00,ESE,119,0.0,0.0,71,0.00,,,0.00,Wunderground v.1.13,2013-03-06 06:52:00,
2013-03-06 01:57:00,33.7,24.3,30.00,ESE,119,1.0,2.0,68,0.00,,,0.00,Wunderground v.1.13,2013-03-06 06:57:00,
2013-03-06 02:03:00,33.7,24.3,30.00,ESE,119,2.0,2.0,68,0.00,,,0.00,Wunderground v.1.13,2013-03-06 07:03:00,
2013-03-06 02:07:00,33.7,24.3,30.00,ESE,119,2.0,2.0,68,0.00,,,0.00,Wunderground v.1.13,2013-03-06 07:07:00,
2013-03-06 02:12:00,33.7,24.3,30.00,ESE,119,2.0,2.0,68,0.00,,,0.00,Wunderground v.1.13,2013-03-06 07:12:00,
2013-03-06 02:22:00,33.7,24.3,29.99,WNW,301,2.0,2.0,68,0.00,,,0.00,Wunderground v.1.13,2013-03-06 07:22:00,
2013-03-06 02:27:00,34.4,24.9,29.99,West,261,5.0,5.0,68,0.00,,,0.00,Wunderground v.1.13,2013-03-06 07:27:00,
2013-03-06 02:32:00,34.4,25.6,29.99,WSW,247,1.0,1.0,70,0.00,,,0.00,Wunderground v.1.13,2013-03-06 07:32:00,
2013-03-06 02:42:00,34.9,26.1,30.00,West,272,4.0,4.0,70,0.00,,,0.00,Wunderground v.1.13,2013-03-06 07:42:00,
2013-03-06 02:52:00,34.9,26.1,29.99,WNW,289,6.0,6.0,70,0.00,,,0.00,Wunderground v.1.13,2013-03-06 07:52:00,
2013-03-06 02:57:00,35.0,26.2,29.99,WSW,243,5.0,5.0,70,0.00,,,0.00,Wunderground v.1.13,2013-03-06 07:57:00,
2013-03-06 03:03:00,35.0,26.2,29.99,WSW,243,5.0,5.0,70,0.00,,,0.00,Wunderground v.1.13,2013-03-06 08:03:00,
2013-03-06 03:12:00,35.0,26.2,29.98,WNW,296,4.0,4.0,70,0.00,,,0.00,Wunderground v.1.13,2013-03-06 08:12:00,
2013-03-06 03:17:00,35.0,26.2,29.98,West,263,5.0,5.0,70,0.00,,,0.00,Wunderground v.1.13,2013-03-06 08:17:00,
2013-03-06 03:22:00,35.0,24.8,29.99,West,278,4.0,5.0,66,0.00,,,0.00,Wunderground v.1.13,2013-03-06 08:22:00,
2013-03-06 03:27:00,34.9,24.7,29.99,WSW,254,3.0,3.0,66,0.00,,,0.00,Wunderground v.1.13,2013-03-06 08:27:00,
2013-03-06 03:32:00,34.9,25.0,29.99,West,270,2.0,3.0,67,0.00,,,0.00,Wunderground v.1.13,2013-03-06 08:32:00,
2013-03-06 03:37:00,34.7,25.2,30.00,West,261,2.0,2.0,68,0.00,,,0.00,Wunderground v.1.13,2013-03-06 08:37:00,
2013-03-06 03:42:00,34.7,25.6,30.00,West,267,2.0,2.0,69,0.00,,,0.00,Wunderground v.1.13,2013-03-06 08:42:00,
2013-03-06 03:47:00,34.7,25.6,30.00,WNW,285,4.0,6.0,69,0.00,,,0.00,Wunderground v.1.13,2013-03-06 08:47:00,
2013-03-06 03:52:00,34.7,25.6,30.00,West,271,4.0,4.0,69,0.00,,,0.00,Wunderground v.1.13,2013-03-06 08:52:00,
2013-03-06 03:57:00,34.7,25.6,30.00,WNW,291,2.0,3.0,69,0.00,,,0.00,Wunderground v.1.13,2013-03-06 08:57:00,
2013-03-06 04:03:00,34.6,25.8,30.00,WNW,287,2.0,2.0,70,0.00,,,0.00,Wunderground v.1.13,2013-03-06 09:03:00,
2013-03-06 04:07:00,34.6,25.8,30.00,WNW,291,2.0,2.0,70,0.00,,,0.00,Wunderground v.1.13,2013-03-06 09:07:00,
2013-03-06 04:12:00,34.6,26.2,30.00,West,280,2.0,2.0,71,0.00,,,0.00,Wunderground v.1.13,2013-03-06 09:12:00,
2013-03-06 04:17:00,34.6,26.2,30.00,WSW,248,2.0,4.0,71,0.00,,,0.00,Wunderground v.1.13,2013-03-06 09:17:00,
2013-03-06 04:22:00,34.4,26.3,30.01,West,280,2.0,3.0,72,0.00,,,0.00,Wunderground v.1.13,2013-03-06 09:22:00,
2013-03-06 04:27:00,34.4,26.3,30.01,WSW,253,2.0,3.0,72,0.00,,,0.00,Wunderground v.1.13,2013-03-06 09:27:00,
2013-03-06 04:32:00,34.4,26.6,30.01,West,280,2.0,5.0,73,0.00,,,0.00,Wunderground v.1.13,2013-03-06 09:32:00,
2013-03-06 04:37:00,34.3,26.2,30.01,West,281,3.0,3.0,72,0.00,,,0.00,Wunderground v.1.13,2013-03-06 09:37:00,
2013-03-06 04:42:00,34.3,26.2,30.01,WSW,258,2.0,2.0,72,0.00,,,0.00,Wunderground v.1.13,2013-03-06 09:42:00,
2013-03-06 04:47:00,34.4,26.0,30.01,WNW,292,3.0,6.0,71,0.00,,,0.00,Wunderground v.1.13,2013-03-06 09:47:00,
2013-03-06 04:52:00,34.4,26.0,30.02,West,277,4.0,4.0,71,0.00,,,0.00,Wunderground v.1.13,2013-03-06 09:52:00,
2013-03-06 04:57:00,34.3,26.2,30.02,West,274,4.0,6.0,72,0.00,,,0.00,Wunderground v.1.13,2013-03-06 09:57:00,
2013-03-06 05:03:00,34.1,26.7,30.02,WNW,289,4.0,5.0,74,0.00,,,0.00,Wunderground v.1.13,2013-03-06 10:03:00,
2013-03-06 05:07:00,34.0,27.2,30.02,NW,319,4.0,7.0,76,0.00,,,0.00,Wunderground v.1.13,2013-03-06 10:07:00,
2013-03-06 05:12:00,34.0,28.2,30.02,WNW,287,3.0,3.0,79,0.00,,,0.00,Wunderground v.1.13,2013-03-06 10:12:00,
2013-03-06 05:17:00,33.8,28.0,30.02,NW,320,3.0,5.0,79,0.00,,,0.00,Wunderground v.1.13,2013-03-06 10:17:00,
2013-03-06 05:22:00,33.7,28.5,30.01,West,260,2.0,2.0,81,0.00,,,0.00,Wunderground v.1.13,2013-03-06 10:22:00,
2013-03-06 05:27:00,33.5,28.6,30.01,NW,305,2.0,4.0,82,0.00,,,0.00,Wunderground v.1.13,2013-03-06 10:27:00,
2013-03-06 05:32:00,33.4,29.4,30.01,WNW,282,2.0,2.0,85,0.00,,,0.00,Wunderground v.1.13,2013-03-06 10:32:00,
2013-03-06 05:37:00,33.4,29.7,30.02,SW,233,2.0,2.0,86,0.00,,,0.00,Wunderground v.1.13,2013-03-06 10:37:00,
2013-03-06 05:42:00,33.2,29.5,30.02,West,278,1.0,2.0,86,0.00,,,0.00,Wunderground v.1.13,2013-03-06 10:42:00,
2013-03-06 05:52:00,33.1,29.9,30.01,West,278,1.0,1.0,88,0.00,,,0.00,Wunderground v.1.13,2013-03-06 10:52:00,
2013-03-06 05:57:00,33.1,29.9,30.01,West,278,1.0,2.0,88,0.00,,,0.00,Wunderground v.1.13,2013-03-06 10:57:00,
2013-03-06 06:02:00,33.1,29.9,30.01,West,278,2.0,2.0,88,0.00,,,0.00,Wunderground v.1.13,2013-03-06 11:02:00,
2013-03-06 06:12:00,33.1,29.9,30.02,West,263,2.0,2.0,88,0.00,,,0.00,Wunderground v.1.13,2013-03-06 11:12:00,
2013-03-06 06:17:00,33.1,29.9,30.02,WSW,257,2.0,2.0,88,0.00,,,0.00,Wunderground v.1.13,2013-03-06 11:17:00,
2013-03-06 06:22:00,33.1,29.9,30.02,West,272,2.0,2.0,88,0.00,,,0.00,Wunderground v.1.13,2013-03-06 11:22:00,
2013-03-06 06:27:00,33.2,30.0,30.02,WSW,241,2.0,2.0,88,0.00,,,0.00,Wunderground v.1.13,2013-03-06 11:27:00,
2013-03-06 06:32:00,33.2,30.0,30.02,West,277,2.0,3.0,88,0.00,,,0.00,Wunderground v.1.13,2013-03-06 11:32:00,
2013-03-06 06:37:00,33.2,30.0,30.03,West,265,3.0,3.0,88,0.00,,,0.00,Wunderground v.1.13,2013-03-06 11:37:00,
2013-03-06 06:42:00,33.4,30.2,30.03,WNW,302,3.0,3.0,88,0.00,,,0.00,Wunderground v.1.13,2013-03-06 11:42:00,
2013-03-06 06:47:00,33.4,30.2,30.03,WNW,285,6.0,6.0,88,0.00,,,0.00,Wunderground v.1.13,2013-03-06 11:47:00,
2013-03-06 06:52:00,33.5,30.3,30.03,West,277,1.0,1.0,88,0.00,,,0.00,Wunderground v.1.13,2013-03-06 11:52:00,
2013-03-06 06:57:00,33.5,-99.9,30.03,WNW,291,3.0,3.0,255,0.00,,,0.00,Wunderground v.1.13,2013-03-06 11:57:00,
2013-03-06 07:02:00,33.7,-99.9,30.03,WSW,239,4.0,4.0,255,0.00,,,0.00,Wunderground v.1.13,2013-03-06 12:02:00,
2013-03-06 07:07:00,33.7,-99.9,30.03,West,275,4.0,4.0,255,0.00,,,0.00,Wunderground v.1.13,2013-03-06 12:07:00,
2013-03-06 07:12:00,33.5,-99.9,30.03,North,359,4.0,6.0,255,0.00,,,0.00,Wunderground v.1.13,2013-03-06 12:12:00,
2013-03-06 07:17:00,33.5,-99.9,30.03,WNW,298,5.0,5.0,255,0.00,,,0.00,Wunderground v.1.13,2013-03-06 12:17:00,
2013-03-06 07:22:00,33.5,-99.9,30.04,WNW,298,5.0,5.0,255,0.00,,,0.00,Wunderground v.1.13,2013-03-06 12:22:00,
2013-03-06 07:27:00,-999.9,-99.9,30.04,North,32767,-999.0,0.0,255,-99.99,,,0.00,Wunderground v.1.13,2013-03-06 12:27:00,
2013-03-06 07:32:00,-999.9,-99.9,30.04,North,32767,-999.0,0.0,255,-99.99,,,0.00,Wunderground v.1.13,2013-03-06 12:32:00,
2013-03-06 07:37:00,-999.9,-99.9,30.04,North,32767,-999.0,0.0,255,-99.99,,,0.00,Wunderground v.1.13,2013-03-06 12:37:00,
2013-03-06 07:42:00,33.7,-99.9,30.04,WSW,254,2.0,2.0,255,-99.99,,,0.00,Wunderground v.1.13,2013-03-06 12:42:00,
2013-03-06 07:47:00,33.7,-99.9,30.04,West,275,8.0,8.0,255,-99.99,,,0.00,Wunderground v.1.13,2013-03-06 12:47:00,
2013-03-06 07:57:00,33.7,-99.9,30.06,West,265,17.0,17.0,255,-99.99,,,0.00,Wunderground v.1.13,2013-03-06 12:57:00,
2013-03-06 08:03:00,33.7,-99.9,30.06,WSW,243,2.0,2.0,255,0.00,,,0.00,Wunderground v.1.13,2013-03-06 13:03:00,
2013-03-06 08:07:00,33.7,30.2,30.06,WNW,298,4.0,5.0,87,0.00,,,0.00,Wunderground v.1.13,2013-03-06 13:07:00,
2013-03-06 08:12:00,33.7,30.2,30.06,West,260,4.0,4.0,87,0.00,,,0.00,Wunderground v.1.13,2013-03-06 13:12:00,
2013-03-06 08:17:00,33.8,30.1,30.06,West,268,4.0,4.0,86,0.00,,,0.00,Wunderground v.1.13,2013-03-06 13:17:00,
2013-03-06 08:22:00,33.8,29.5,30.07,West,267,5.0,5.0,84,0.00,,,0.00,Wunderground v.1.13,2013-03-06 13:22:00,
2013-03-06 08:27:00,34.0,29.1,30.07,WNW,287,4.0,7.0,82,0.00,,,0.00,Wunderground v.1.13,2013-03-06 13:27:00,
2013-03-06 08:32:00,34.0,28.5,30.07,West,277,5.0,6.0,80,0.00,,,0.00,Wunderground v.1.13,2013-03-06 13:32:00,
2013-03-06 08:37:00,34.1,28.3,30.07,WNW,295,5.0,6.0,79,0.00,,,0.00,Wunderground v.1.13,2013-03-06 13:37:00,
2013-03-06 08:42:00,34.1,27.3,30.07,WNW,282,5.0,6.0,76,0.00,,,0.00,Wunderground v.1.13,2013-03-06 13:42:00,
2013-03-06 08:47:00,34.1,25.7,30.07,WNW,284,6.0,7.0,71,0.00,,,0.00,Wunderground v.1.13,2013-03-06 13:47:00,
2013-03-06 08:52:00,34.4,26.0,30.06,West,267,7.0,7.0,71,0.00,,,0.00,Wunderground v.1.13,2013-03-06 13:52:00,
2013-03-06 08:57:00,34.7,23.0,30.06,West,271,6.0,7.0,62,0.00,,,0.00,Wunderground v.1.13,2013-03-06 13:57:00,
2013-03-06 09:02:00,34.7,21.4,30.06,West,278,4.0,5.0,58,0.00,,,0.00,Wunderground v.1.13,2013-03-06 14:02:00,
2013-03-06 09:07:00,34.9,20.4,30.06,NW,306,6.0,11.0,55,0.00,,,0.00,Wunderground v.1.13,2013-03-06 14:07:00,
2013-03-06 09:12:00,35.0,20.4,30.06,West,271,6.0,6.0,55,0.00,,,0.00,Wunderground v.1.13,2013-03-06 14:12:00,
2013-03-06 09:17:00,35.0,20.4,30.06,West,270,6.0,6.0,55,0.00,,,0.00,Wunderground v.1.13,2013-03-06 14:17:00,
2013-03-06 09:22:00,35.3,20.7,30.06,West,275,13.0,13.0,55,0.00,,,0.00,Wunderground v.1.13,2013-03-06 14:22:00,
2013-03-06 09:27:00,35.3,20.7,30.06,WNW,292,13.0,13.0,55,0.00,,,0.00,Wunderground v.1.13,2013-03-06 14:27:00,
2013-03-06 09:32:00,35.6,21.0,30.06,WSW,253,10.0,10.0,55,0.00,,,0.00,Wunderground v.1.13,2013-03-06 14:32:00,
2013-03-06 09:37:00,35.8,21.2,30.06,West,268,10.0,11.0,55,0.00,,,0.00,Wunderground v.1.13,2013-03-06 14:37:00,
2013-03-06 09:42:00,35.8,21.2,30.06,SW,236,9.0,9.0,55,0.00,,,0.00,Wunderground v.1.13,2013-03-06 14:42:00,
2013-03-06 09:47:00,36.0,5.2,30.06,SW,232,6.0,6.0,27,0.00,,,0.00,Wunderground v.1.13,2013-03-06 14:47:00,
2013-03-06 09:57:00,36.0,1.7,30.06,WSW,243,10.0,10.0,23,0.00,,,0.00,Wunderground v.1.13,2013-03-06 14:57:00,
2013-03-06 10:03:00,36.0,-2.4,30.06,NW,322,10.0,10.0,19,0.00,,,0.00,Wunderground v.1.13,2013-03-06 15:03:00,
2013-03-06 10:07:00,36.2,-2.2,30.06,WNW,294,9.0,11.0,19,0.00,,,0.00,Wunderground v.1.13,2013-03-06 15:07:00,
2013-03-06 10:12:00,36.2,-3.3,30.06,WSW,256,7.0,7.0,18,0.00,,,0.00,Wunderground v.1.13,2013-03-06 15:12:00,
2013-03-06 10:17:00,36.2,-5.8,30.06,NW,308,8.0,8.0,16,0.00,,,0.00,Wunderground v.1.13,2013-03-06 15:17:00,
2013-03-06 10:22:00,36.3,-5.7,30.07,NW,325,8.0,8.0,16,0.00,,,0.00,Wunderground v.1.13,2013-03-06 15:22:00,
2013-03-06 10:27:00,36.5,-8.3,30.07,NW,315,8.0,8.0,14,0.00,,,0.00,Wunderground v.1.13,2013-03-06 15:27:00,
2013-03-06 10:32:00,36.5,-8.3,30.07,NW,313,7.0,7.0,14,0.00,,,0.00,Wunderground v.1.13,2013-03-06 15:32:00,
2013-03-06 10:37:00,36.5,-8.3,30.07,NW,308,7.0,8.0,14,0.00,,,0.00,Wunderground v.1.13,2013-03-06 15:37:00,
2013-03-06 10:42:00,36.5,-13.2,30.07,NW,313,8.0,8.0,11,0.00,,,0.00,Wunderground v.1.13,2013-03-06 15:42:00,
2013-03-06 10:47:00,36.6,-13.1,30.07,NW,318,6.0,8.0,11,0.00,,,0.00,Wunderground v.1.13,2013-03-06 15:47:00,
2013-03-06 10:52:00,36.9,-12.9,30.06,WNW,296,7.0,8.0,11,0.00,,,0.00,Wunderground v.1.13,2013-03-06 15:52:00,
2013-03-06 10:57:00,37.0,-12.8,30.06,West,267,9.0,10.0,11,0.00,,,0.00,Wunderground v.1.13,2013-03-06 15:57:00,
2013-03-06 11:03:00,37.0,-12.8,30.06,WNW,289,10.0,17.0,11,0.00,,,0.00,Wunderground v.1.13,2013-03-06 16:03:00,
2013-03-06 11:07:00,37.0,-12.8,30.06,NNW,333,10.0,10.0,11,0.00,,,0.00,Wunderground v.1.13,2013-03-06 16:07:00,
2013-03-06 11:12:00,37.3,-12.5,30.06,WNW,291,9.0,9.0,11,0.00,,,0.00,Wunderground v.1.13,2013-03-06 16:12:00,
2013-03-06 11:17:00,37.6,-99.9,30.06,NW,308,8.0,10.0,0,0.00,,,0.00,Wunderground v.1.13,2013-03-06 16:17:00,
2013-03-06 11:22:00,37.6,-99.9,30.06,NW,304,6.0,6.0,0,0.00,,,0.00,Wunderground v.1.13,2013-03-06 16:22:00,
2013-03-06 11:27:00,37.8,-99.9,30.06,WNW,294,8.0,8.0,255,0.00,,,0.00,Wunderground v.1.13,2013-03-06 16:27:00,
2013-03-06 11:32:00,37.8,-99.9,30.06,WNW,284,7.0,7.0,255,0.00,,,0.00,Wunderground v.1.13,2013-03-06 16:32:00,
2013-03-06 11:37:00,37.6,-99.9,30.05,West,264,8.0,8.0,255,0.00,,,0.00,Wunderground v.1.13,2013-03-06 16:37:00,
2013-03-06 11:42:00,37.6,-99.9,30.05,SW,232,7.0,7.0,0,0.00,,,0.00,Wunderground v.1.13,2013-03-06 16:42:00,
2013-03-06 11:52:00,37.5,-99.9,30.05,NW,322,8.0,13.0,0,0.00,,,0.00,Wunderground v.1.13,2013-03-06 16:52:00,
2013-03-06 11:57:00,37.5,-99.9,30.05,West,265,9.0,9.0,0,0.00,,,0.00,Wunderground v.1.13,2013-03-06 16:57:00,
2013-03-06 12:02:00,37.5,-99.9,30.05,WNW,285,9.0,10.0,0,0.00,,,0.00,Wunderground v.1.13,2013-03-06 17:02:00,
2013-03-06 12:12:00,37.5,-99.9,30.04,West,265,8.0,12.0,0,0.00,,,0.00,Wunderground v.1.13,2013-03-06 17:12:00,
2013-03-06 12:17:00,37.5,-99.9,30.04,West,271,8.0,12.0,0,0.00,,,0.00,Wunderground v.1.13,2013-03-06 17:17:00,
2013-03-06 12:22:00,37.5,-99.9,30.05,WNW,285,6.0,6.0,0,0.00,,,0.00,Wunderground v.1.13,2013-03-06 17:22:00,
2013-03-06 12:27:00,37.3,-99.9,30.05,WSW,240,8.0,8.0,255,0.00,,,0.00,Wunderground v.1.13,2013-03-06 17:27:00,
2013-03-06 12:32:00,37.3,-99.9,30.05,West,261,9.0,9.0,0,0.00,,,0.00,Wunderground v.1.13,2013-03-06 17:32:00,
2013-03-06 12:37:00,37.3,-99.9,30.04,WNW,282,10.0,10.0,0,0.00,,,0.00,Wunderground v.1.13,2013-03-06 17:37:00,
2013-03-06 12:42:00,37.3,-99.9,30.04,NW,323,10.0,10.0,255,0.00,,,0.00,Wunderground v.1.13,2013-03-06 17:42:00,
2013-03-06 12:47:00,37.3,-99.9,30.04,WNW,292,9.0,9.0,0,0.00,,,0.00,Wunderground v.1.13,2013-03-06 17:47:00,
2013-03-06 12:52:00,37.3,-55.4,30.05,NNW,342,9.0,12.0,1,0.00,,,0.00,Wunderground v.1.13,2013-03-06 17:52:00,
2013-03-06 12:57:00,36.6,-21.9,30.05,West,272,10.0,10.0,7,0.00,,,0.00,Wunderground v.1.13,2013-03-06 17:57:00,
2013-03-06 13:03:00,36.2,-13.4,30.05,SW,216,10.0,10.0,11,0.00,,,0.00,Wunderground v.1.13,2013-03-06 18:03:00,
2013-03-06 13:07:00,36.3,-17.3,30.05,WNW,289,10.0,10.0,9,0.00,,,0.00,Wunderground v.1.13,2013-03-06 18:07:00,
2013-03-06 13:12:00,36.3,-17.3,30.05,NW,306,10.0,10.0,9,0.00,,,0.00,Wunderground v.1.13,2013-03-06 18:12:00,
2013-03-06 13:17:00,36.3,-11.6,30.05,WNW,296,9.0,10.0,12,0.00,,,0.00,Wunderground v.1.13,2013-03-06 18:17:00,
2013-03-06 13:22:00,36.3,-8.5,30.05,WNW,296,9.0,9.0,14,0.00,,,0.00,Wunderground v.1.13,2013-03-06 18:22:00,
2013-03-06 13:27:00,36.5,-13.2,30.05,West,270,7.0,7.0,11,0.00,,,0.00,Wunderground v.1.13,2013-03-06 18:27:00,
2013-03-06 13:32:00,36.6,-19.4,30.05,West,274,7.0,8.0,8,0.00,,,0.00,Wunderground v.1.13,2013-03-06 18:32:00,
2013-03-06 13:37:00,36.8,-16.9,30.05,SSW,192,8.0,8.0,9,0.00,,,0.00,Wunderground v.1.13,2013-03-06 18:37:00,
2013-03-06 13:42:00,36.8,-16.9,30.05,NW,319,7.0,11.0,9,0.00,,,0.00,Wunderground v.1.13,2013-03-06 18:42:00,
2013-03-06 13:47:00,36.6,-13.1,30.05,SSW,213,6.0,6.0,11,0.00,,,0.00,Wunderground v.1.13,2013-03-06 18:47:00,
2013-03-06 13:52:00,36.3,-15.2,30.05,West,267,7.0,7.0,10,0.00,,,0.00,Wunderground v.1.13,2013-03-06 18:52:00,
2013-03-06 13:57:00,36.2,-8.5,30.05,NW,304,7.0,7.0,14,0.00,,,0.00,Wunderground v.1.13,2013-03-06 18:57:00,
2013-03-06 14:03:00,36.2,-8.5,30.05,SW,233,8.0,8.0,14,0.00,,,0.00,Wunderground v.1.13,2013-03-06 19:03:00,
2013-03-06 14:12:00,36.3,-13.3,30.05,WSW,253,8.0,8.0,11,0.00,,,0.00,Wunderground v.1.13,2013-03-06 19:12:00,
2013-03-06 14:22:00,36.3,-10.0,30.05,NW,320,6.0,6.0,13,0.00,,,0.00,Wunderground v.1.13,2013-03-06 19:22:00,
2013-03-06 14:27:00,36.2,-7.1,30.05,WSW,258,5.0,7.0,15,0.00,,,0.00,Wunderground v.1.13,2013-03-06 19:27:00,
2013-03-06 14:32:00,35.9,-4.8,30.05,WNW,288,5.0,9.0,17,0.00,,,0.00,Wunderground v.1.13,2013-03-06 19:32:00,
2013-03-06 14:37:00,35.8,2.5,30.05,WSW,257,6.0,8.0,24,0.00,,,0.00,Wunderground v.1.13,2013-03-06 19:37:00,
2013-03-06 14:42:00,35.3,6.9,30.05,WSW,246,6.0,6.0,30,0.00,,,0.00,Wunderground v.1.13,2013-03-06 19:42:00,
2013-03-06 14:52:00,34.6,14.4,30.05,West,263,6.0,6.0,43,0.00,,,0.00,Wunderground v.1.13,2013-03-06 19:52:00,
2013-03-06 14:57:00,34.3,17.1,30.05,West,261,6.0,8.0,49,0.00,,,0.00,Wunderground v.1.13,2013-03-06 19:57:00,
2013-03-06 15:03:00,34.0,19.1,30.05,WNW,287,6.0,6.0,54,0.00,,,0.00,Wunderground v.1.13,2013-03-06 20:03:00,
2013-03-06 15:07:00,34.0,19.9,30.05,West,265,5.0,8.0,56,0.00,,,0.00,Wunderground v.1.13,2013-03-06 20:07:00,
2013-03-06 15:12:00,34.4,16.7,30.05,West,277,6.0,6.0,48,0.00,,,0.00,Wunderground v.1.13,2013-03-06 20:12:00,
2013-03-06 15:17:00,34.7,14.5,30.05,WSW,251,6.0,6.0,43,0.00,,,0.00,Wunderground v.1.13,2013-03-06 20:17:00,
2013-03-06 15:22:00,34.6,14.4,30.05,WSW,247,5.0,5.0,43,0.00,,,0.00,Wunderground v.1.13,2013-03-06 20:22:00,
2013-03-06 15:27:00,34.6,12.7,30.05,WSW,251,5.0,10.0,40,0.00,,,0.00,Wunderground v.1.13,2013-03-06 20:27:00,
2013-03-06 15:32:00,34.9,9.3,30.05,West,268,6.0,6.0,34,0.00,,,0.00,Wunderground v.1.13,2013-03-06 20:32:00,
2013-03-06 15:37:00,35.0,3.5,30.05,WNW,282,6.0,6.0,26,0.00,,,0.00,Wunderground v.1.13,2013-03-06 20:37:00,
2013-03-06 15:42:00,35.2,2.8,30.05,WSW,248,6.0,6.0,25,0.00,,,0.00,Wunderground v.1.13,2013-03-06 20:42:00,
2013-03-06 15:47:00,35.3,-0.8,30.05,West,271,4.0,4.0,21,0.00,,,0.00,Wunderground v.1.13,2013-03-06 20:47:00,
2013-03-06 15:52:00,35.5,-14.0,30.05,WNW,284,5.0,8.0,11,0.00,,,0.00,Wunderground v.1.13,2013-03-06 20:52:00,
2013-03-06 15:57:00,35.8,-28.8,30.05,West,280,7.0,17.0,5,0.00,,,0.00,Wunderground v.1.13,2013-03-06 20:57:00,
2013-03-06 16:03:00,35.8,-45.0,30.05,WSW,241,9.0,9.0,2,0.00,,,0.00,Wunderground v.1.13,2013-03-06 21:03:00,
2013-03-06 16:07:00,35.9,-99.9,30.05,SW,236,9.0,9.0,0,0.00,,,0.00,Wunderground v.1.13,2013-03-06 21:07:00,
2013-03-06 16:12:00,35.9,-99.9,30.05,West,263,8.0,8.0,0,0.00,,,0.00,Wunderground v.1.13,2013-03-06 21:12:00,
2013-03-06 16:17:00,36.0,-99.9,30.05,WNW,288,7.0,8.0,0,0.00,,,0.00,Wunderground v.1.13,2013-03-06 21:17:00,
2013-03-06 16:22:00,35.9,-99.9,30.06,WSW,243,8.0,18.0,0,0.00,,,0.00,Wunderground v.1.13,2013-03-06 21:22:00,
2013-03-06 16:27:00,35.8,-99.9,30.06,NW,312,9.0,9.0,255,0.00,,,0.00,Wunderground v.1.13,2013-03-06 21:27:00,
2013-03-06 16:32:00,35.6,-99.9,30.06,West,264,9.0,17.0,255,0.00,,,0.00,Wunderground v.1.13,2013-03-06 21:32:00,
2013-03-06 16:37:00,35.6,-99.9,30.06,West,272,10.0,10.0,0,0.00,,,0.00,Wunderground v.1.13,2013-03-06 21:37:00,
2013-03-06 16:42:00,35.5,-99.9,30.06,WSW,248,9.0,9.0,0,0.00,,,0.00,Wunderground v.1.13,2013-03-06 21:42:00,
2013-03-06 16:52:00,35.5,-56.5,30.07,WNW,287,8.0,8.0,1,0.00,,,0.00,Wunderground v.1.13,2013-03-06 21:52:00,
2013-03-06 16:57:00,35.3,-56.6,30.07,WNW,301,10.0,10.0,1,0.00,,,0.00,Wunderground v.1.13,2013-03-06 21:57:00,
2013-03-06 17:03:00,35.2,-38.4,30.07,NW,309,10.0,10.0,3,0.00,,,0.00,Wunderground v.1.13,2013-03-06 22:03:00,
2013-03-06 17:07:00,35.2,-38.4,30.07,NW,305,9.0,11.0,3,0.00,,,0.00,Wunderground v.1.13,2013-03-06 22:07:00,
2013-03-06 17:12:00,35.0,-38.6,30.07,West,265,7.0,11.0,3,0.00,,,0.00,Wunderground v.1.13,2013-03-06 22:12:00,
2013-03-06 17:17:00,35.0,-33.5,30.07,WSW,244,7.0,7.0,4,0.00,,,0.00,Wunderground v.1.13,2013-03-06 22:17:00,
2013-03-06 17:22:00,34.9,-29.5,30.08,West,281,6.0,6.0,5,0.00,,,0.00,Wunderground v.1.13,2013-03-06 22:22:00,
2013-03-06 17:27:00,34.9,-29.5,30.08,WNW,285,7.0,7.0,5,0.00,,,0.00,Wunderground v.1.13,2013-03-06 22:27:00,
2013-03-06 17:32:00,34.9,-33.5,30.08,West,263,8.0,8.0,4,0.00,,,0.00,Wunderground v.1.13,2013-03-06 22:32:00,
2013-03-06 17:37:00,34.7,-29.6,30.08,West,277,7.0,7.0,5,0.00,,,0.00,Wunderground v.1.13,2013-03-06 22:37:00,
2013-03-06 17:42:00,34.7,-26.2,30.08,NW,313,6.0,6.0,6,0.00,,,0.00,Wunderground v.1.13,2013-03-06 22:42:00,
2013-03-06 17:47:00,34.6,-29.7,30.08,WSW,250,6.0,6.0,5,0.00,,,0.00,Wunderground v.1.13,2013-03-06 22:47:00,
2013-03-06 17:52:00,34.6,-20.9,30.08,WNW,284,5.0,5.0,8,0.00,,,0.00,Wunderground v.1.13,2013-03-06 22:52:00,
2013-03-06 17:57:00,34.4,-14.8,30.08,WSW,256,4.0,4.0,11,0.00,,,0.00,Wunderground v.1.13,2013-03-06 22:57:00,
2013-03-06 18:02:00,34.1,-7.5,30.08,West,268,4.0,7.0,16,0.00,,,0.00,Wunderground v.1.13,2013-03-06 23:02:00,
2013-03-06 18:12:00,33.5,4.6,30.10,West,278,5.0,8.0,29,0.00,,,0.00,Wunderground v.1.13,2013-03-06 23:12:00,
2013-03-06 18:17:00,33.2,7.8,30.10,West,265,5.0,5.0,34,0.00,,,0.00,Wunderground v.1.13,2013-03-06 23:17:00,
2013-03-06 18:22:00,33.1,9.0,30.10,West,271,4.0,5.0,36,0.00,,,0.00,Wunderground v.1.13,2013-03-06 23:22:00,
2013-03-06 18:27:00,32.9,8.2,30.10,WNW,296,6.0,6.0,35,0.00,,,0.00,Wunderground v.1.13,2013-03-06 23:27:00,
2013-03-06 18:37:00,32.8,10.5,30.10,WSW,247,6.0,7.0,39,0.00,,,0.00,Wunderground v.1.13,2013-03-06 23:37:00,
2013-03-06 18:42:00,32.8,10.5,30.10,West,267,7.0,7.0,39,0.00,,,0.00,Wunderground v.1.13,2013-03-06 23:42:00,
2013-03-06 18:47:00,32.7,11.0,30.10,WSW,250,6.0,10.0,40,0.00,,,0.00,Wunderground v.1.13,2013-03-06 23:47:00,
2013-03-06 18:52:00,32.8,10.5,30.10,WSW,246,6.0,6.0,39,0.00,,,0.00,Wunderground v.1.13,2013-03-06 23:52:00,
2013-03-06 18:57:00,32.7,11.0,30.10,NW,312,6.0,6.0,40,0.00,,,0.00,Wunderground v.1.13,2013-03-06 23:57:00,
2013-03-06 19:03:00,32.7,11.0,30.10,West,268,5.0,5.0,40,0.00,,,0.00,Wunderground v.1.13,2013-03-07 00:03:00,
2013-03-06 19:07:00,32.7,11.0,30.10,West,278,5.0,5.0,40,0.00,,,0.00,Wunderground v.1.13,2013-03-07 00:07:00,
2013-03-06 19:12:00,32.7,9.8,30.10,SW,236,5.0,5.0,38,0.00,,,0.00,Wunderground v.1.13,2013-03-07 00:12:00,
2013-03-06 19:22:00,32.7,9.8,30.09,WNW,299,4.0,6.0,38,0.00,,,0.00,Wunderground v.1.13,2013-03-07 00:22:00,
2013-03-06 19:27:00,32.7,9.8,30.09,West,271,4.0,8.0,38,0.00,,,0.00,Wunderground v.1.13,2013-03-07 00:27:00,
2013-03-06 19:32:00,32.7,7.4,30.09,WSW,256,5.0,6.0,34,0.00,,,0.00,Wunderground v.1.13,2013-03-07 00:32:00,
2013-03-06 19:37:00,32.8,6.1,30.09,WSW,244,6.0,6.0,32,0.00,,,0.00,Wunderground v.1.13,2013-03-07 00:37:00,
2013-03-06 19:42:00,32.8,6.1,30.09,SW,226,5.0,5.0,32,0.00,,,0.00,Wunderground v.1.13,2013-03-07 00:42:00,
2013-03-06 19:47:00,32.8,2.4,30.09,WNW,284,4.0,13.0,27,0.00,,,0.00,Wunderground v.1.13,2013-03-07 00:47:00,
2013-03-06 19:52:00,32.9,2.5,30.09,NW,305,6.0,6.0,27,0.00,,,0.00,Wunderground v.1.13,2013-03-07 00:52:00,
2013-03-06 19:57:00,32.9,0.9,30.09,WSW,248,5.0,5.0,25,0.00,,,0.00,Wunderground v.1.13,2013-03-07 00:57:00,
2013-03-06 20:03:00,33.1,1.0,30.09,WSW,246,5.0,5.0,25,0.00,,,0.00,Wunderground v.1.13,2013-03-07 01:03:00,
2013-03-06 20:07:00,33.1,-2.7,30.08,West,271,6.0,6.0,21,0.00,,,0.00,Wunderground v.1.13,2013-03-07 01:07:00,
2013-03-06 20:12:00,33.2,-3.6,30.08,WSW,243,6.0,6.0,20,0.00,,,0.00,Wunderground v.1.13,2013-03-07 01:12:00,
2013-03-06 20:17:00,33.2,-7.0,30.08,West,274,8.0,8.0,17,0.00,,,0.00,Wunderground v.1.13,2013-03-07 01:17:00,
2013-03-06 20:22:00,33.4,-5.6,30.09,West,268,7.0,7.0,18,0.00,,,0.00,Wunderground v.1.13,2013-03-07 01:22:00,
2013-03-06 20:27:00,33.4,-8.1,30.09,WSW,241,5.0,5.0,16,0.00,,,0.00,Wunderground v.1.13,2013-03-07 01:27:00,
2013-03-06 20:32:00,33.4,-6.8,30.09,WSW,251,5.0,6.0,17,0.00,,,0.00,Wunderground v.1.13,2013-03-07 01:32:00,
2013-03-06 20:37:00,33.4,-6.8,30.08,West,280,6.0,7.0,17,0.00,,,0.00,Wunderground v.1.13,2013-03-07 01:37:00,
2013-03-06 20:42:00,33.4,-9.4,30.08,NW,312,6.0,6.0,15,0.00,,,0.00,Wunderground v.1.13,2013-03-07 01:42:00,
2013-03-06 20:47:00,33.4,-9.4,30.08,WSW,246,6.0,6.0,15,0.00,,,0.00,Wunderground v.1.13,2013-03-07 01:47:00,
2013-03-06 20:52:00,33.4,-6.8,30.08,SW,233,5.0,10.0,17,0.00,,,0.00,Wunderground v.1.13,2013-03-07 01:52:00,
2013-03-06 20:57:00,33.4,-8.1,30.08,West,271,4.0,5.0,16,0.00,,,0.00,Wunderground v.1.13,2013-03-07 01:57:00,
2013-03-06 21:02:00,33.2,-9.6,30.08,WNW,284,6.0,7.0,15,0.00,,,0.00,Wunderground v.1.13,2013-03-07 02:02:00,
2013-03-06 21:07:00,33.2,-8.2,30.07,WNW,295,7.0,10.0,16,0.00,,,0.00,Wunderground v.1.13,2013-03-07 02:07:00,
2013-03-06 21:12:00,33.2,-8.2,30.07,West,277,7.0,10.0,16,0.00,,,0.00,Wunderground v.1.13,2013-03-07 02:12:00,
2013-03-06 21:17:00,33.1,-7.1,30.07,West,260,7.0,7.0,17,0.00,,,0.00,Wunderground v.1.13,2013-03-07 02:17:00,
2013-03-06 21:22:00,33.1,-7.1,30.07,West,270,6.0,6.0,17,0.00,,,0.00,Wunderground v.1.13,2013-03-07 02:22:00,
2013-03-06 21:27:00,33.1,-7.1,30.07,West,275,6.0,6.0,17,0.00,,,0.00,Wunderground v.1.13,2013-03-07 02:27:00,
2013-03-06 21:32:00,33.1,-7.1,30.07,WNW,292,6.0,6.0,17,0.00,,,0.00,Wunderground v.1.13,2013-03-07 02:32:00,
2013-03-06 21:37:00,33.1,-7.1,30.07,West,272,5.0,6.0,17,0.00,,,0.00,Wunderground v.1.13,2013-03-07 02:37:00,
2013-03-06 21:42:00,32.9,-6.1,30.07,SW,220,5.0,6.0,18,0.00,,,0.00,Wunderground v.1.13,2013-03-07 02:42:00,
2013-03-06 21:47:00,32.9,-6.1,30.07,WSW,254,6.0,6.0,18,0.00,,,0.00,Wunderground v.1.13,2013-03-07 02:47:00,
2013-03-06 21:57:00,32.9,-6.1,30.06,West,265,7.0,7.0,18,0.00,,,0.00,Wunderground v.1.13,2013-03-07 02:57:00,
2013-03-06 22:02:00,32.9,-4.9,30.06,West,277,6.0,6.0,19,0.00,,,0.00,Wunderground v.1.13,2013-03-07 03:02:00,
2013-03-06 22:07:00,32.9,-6.1,30.07,WSW,253,6.0,7.0,18,0.00,,,0.00,Wunderground v.1.13,2013-03-07 03:07:00,
2013-03-06 22:12:00,32.9,-6.1,30.07,WSW,247,6.0,6.0,18,0.00,,,0.00,Wunderground v.1.13,2013-03-07 03:12:00,
2013-03-06 22:22:00,32.7,-3.0,30.06,WNW,284,6.0,6.0,21,0.00,,,0.00,Wunderground v.1.13,2013-03-07 03:22:00,
2013-03-06 22:27:00,32.7,-2.0,30.06,West,263,6.0,6.0,22,0.00,,,0.00,Wunderground v.1.13,2013-03-07 03:27:00,
2013-03-06 22:32:00,32.5,-2.2,30.06,West,274,4.0,4.0,22,0.00,,,0.00,Wunderground v.1.13,2013-03-07 03:32:00,
2013-03-06 22:37:00,32.5,-1.3,30.06,WSW,247,3.0,4.0,23,0.00,,,0.00,Wunderground v.1.13,2013-03-07 03:37:00,
2013-03-06 22:42:00,32.5,-3.2,30.06,SSW,193,6.0,6.0,21,0.00,,,0.00,Wunderground v.1.13,2013-03-07 03:42:00,
2013-03-06 22:47:00,32.5,-3.2,30.06,WNW,302,7.0,9.0,21,0.00,,,0.00,Wunderground v.1.13,2013-03-07 03:47:00,
2013-03-06 22:52:00,32.5,-3.2,30.06,West,261,7.0,7.0,21,0.00,,,0.00,Wunderground v.1.13,2013-03-07 03:52:00,
2013-03-06 22:57:00,32.4,-3.3,30.06,WSW,251,7.0,10.0,21,0.00,,,0.00,Wunderground v.1.13,2013-03-07 03:57:00,
2013-03-06 23:03:00,32.4,-3.3,30.06,WSW,256,7.0,7.0,21,0.00,,,0.00,Wunderground v.1.13,2013-03-07 04:03:00,
2013-03-06 23:07:00,32.4,-2.3,30.06,West,270,6.0,6.0,22,0.00,,,0.00,Wunderground v.1.13,2013-03-07 04:07:00,
2013-03-06 23:12:00,32.2,-2.5,30.06,NW,315,5.0,11.0,22,0.00,,,0.00,Wunderground v.1.13,2013-03-07 04:12:00,
2013-03-06 23:22:00,32.1,0.2,30.06,West,271,4.0,5.0,25,0.00,,,0.00,Wunderground v.1.13,2013-03-07 04:22:00,
2013-03-06 23:32:00,32.1,1.0,30.06,SW,223,3.0,3.0,26,0.00,,,0.00,Wunderground v.1.13,2013-03-07 04:32:00,
2013-03-06 23:37:00,31.9,2.4,30.06,WNW,301,6.0,6.0,28,0.00,,,0.00,Wunderground v.1.13,2013-03-07 04:37:00,
2013-03-06 23:47:00,31.9,2.4,30.06,SSW,212,6.0,6.0,28,0.00,,,0.00,Wunderground v.1.13,2013-03-07 04:47:00,
2013-03-06 23:52:00,31.9,3.9,30.06,West,267,5.0,5.0,30,0.00,,,0.00,Wunderground v.1.13,2013-03-07 04:52:00,
2013-03-06 23:57:00,31.8,5.2,30.06,West,265,6.0,12.0,32,0.00,,,0.00,Wunderground v.1.13,2013-03-07 04:57:00,